Time;durP1;ratioP1;P1;durP2;ratioP2;P2;SDS_P1;SDS_P2;PMS_P1;PMS_P2;Temp;Humidity;BMP_temperature;BMP_pressure;BME280_temperature;BME280_humidity;BME280_pressure;Samples;Min_cycle;Max_cycle;Signal;HPM_P1;HPM_P2
2023/04/06 00:02:07;;;;;;;;;;;;;;;4.15;57.82;101759.38;5036990;28;1108;-81
2023/04/06 00:04:33;;;;;;;;;;;;;;;4.14;57.41;101752.59;5041091;28;1054;-81
2023/04/06 00:06:58;;;;;;;;;;;;;;;4.14;57.59;101756.88;5040161;28;1092;-81
2023/04/06 00:09:23;;;;;;;;;;;;;;;4.15;57.63;101754.25;5037306;28;1217;-81
2023/04/06 00:11:48;;;;;;;;;;;;;;;4.13;57.38;101745.78;5038197;28;1149;-80
2023/04/06 00:14:15;;;;;;;;;;;;;;;4.13;57.51;101753.50;5037576;28;1082;-80
2023/04/06 00:16:40;;;;;;;;;;;;;;;4.13;57.49;101756.06;5021810;28;1917;-81
2023/04/06 00:19:06;;;;;;;;;;;;;;;4.08;57.32;101742.56;5011602;28;1306;-80
2023/04/06 00:21:31;;;;;;;;;;;;;;;4.07;57.28;101738.34;5020795;28;1133;-80
2023/04/06 00:23:58;;;;;;;;;;;;;;;4.05;57.59;101737.53;5007495;28;1250;-80
2023/04/06 00:26:23;;;;;;;;;;;;;;;4.04;57.90;101740.16;5021826;28;1271;-80
2023/04/06 00:28:50;;;;;;;;;;;;;;;4.02;57.82;101737.69;5029691;28;1101;-80
2023/04/06 00:31:15;;;;;;;;;;;;;;;4.00;57.52;101729.19;5025489;28;1199;-80
2023/04/06 00:33:40;;;;;;;;;;;;;;;3.99;57.81;101732.66;5031574;28;1169;-80
2023/04/06 00:36:06;;;;;;;;;;;;;;;3.95;57.61;101741.34;5037359;28;993;-80
2023/04/06 00:38:31;;;;;;;;;;;;;;;3.90;57.99;101727.88;5035964;28;2007;-81
2023/04/06 00:40:56;;;;;;;;;;;;;;;3.89;57.88;101731.31;5040286;28;1033;-80
2023/04/06 00:43:21;;;;;;;;;;;;;;;3.88;57.87;101724.53;5030600;28;1055;-81
2023/04/06 00:45:47;;;;;;;;;;;;;;;3.87;57.81;101720.31;5039918;28;1073;-81
2023/04/06 00:48:13;;;;;;;;;;;;;;;3.82;58.17;101717.06;5037990;28;970;-80
2023/04/06 00:50:38;;;;;;;;;;;;;;;3.80;57.94;101717.16;5036002;28;1317;-79
2023/04/06 00:53:03;;;;;;;;;;;;;;;3.77;58.06;101711.28;5036523;28;1174;-80
2023/04/06 00:55:29;;;;;;;;;;;;;;;3.76;57.80;101709.63;5039602;28;1120;-81
2023/04/06 00:57:54;;;;;;;;;;;;;;;3.73;57.90;101716.56;5033487;28;1970;-81
2023/04/06 01:00:20;;;;;;;;;;;;;;;3.71;58.40;101713.19;5029853;28;1098;-80
2023/04/06 01:02:46;;;;;;;;;;;;;;;3.69;58.48;101709.84;5035972;28;1318;-80
2023/04/06 01:05:11;;;;;;;;;;;;;;;3.64;58.35;101706.63;5031422;28;1086;-80
2023/04/06 01:07:37;;;;;;;;;;;;;;;3.60;58.92;101702.50;5034075;28;1295;-79
2023/04/06 01:10:02;;;;;;;;;;;;;;;3.57;58.75;101700.06;5023039;28;1247;-79
2023/04/06 01:12:28;;;;;;;;;;;;;;;3.55;58.88;101691.59;5039244;28;1341;-81
2023/04/06 01:14:53;;;;;;;;;;;;;;;3.54;58.86;101694.22;5032133;28;1200;-79
2023/04/06 01:17:18;;;;;;;;;;;;;;;3.50;58.85;101688.38;5031343;28;1955;-80
2023/04/06 01:19:45;;;;;;;;;;;;;;;3.48;58.66;101687.59;5034317;28;1016;-80
2023/04/06 01:22:13;;;;;;;;;;;;;;;3.44;58.88;101688.59;5029165;28;1138;-80
2023/04/06 01:24:39;;;;;;;;;;;;;;;3.38;58.79;101681.13;5021332;28;1489;-80
2023/04/06 01:27:04;;;;;;;;;;;;;;;3.36;58.81;101688.06;5039748;28;1111;-79
2023/04/06 01:29:29;;;;;;;;;;;;;;;3.36;59.39;101681.19;5043522;28;1104;-79
2023/04/06 01:31:55;;;;;;;;;;;;;;;3.36;59.06;101675.25;5037861;28;1090;-80
2023/04/06 01:34:20;;;;;;;;;;;;;;;3.35;59.42;101668.44;5037107;28;1194;-80
2023/04/06 01:36:46;;;;;;;;;;;;;;;3.32;58.92;101668.53;5028488;28;1915;-79
2023/04/06 01:39:11;;;;;;;;;;;;;;;3.27;58.98;101665.31;5022594;28;1480;-79
2023/04/06 01:41:36;;;;;;;;;;;;;;;3.25;59.10;101667.13;5019875;28;1842;-80
2023/04/06 01:44:02;;;;;;;;;;;;;;;3.20;59.57;101665.53;5014964;28;1201;-80
2023/04/06 01:46:27;;;;;;;;;;;;;;;3.18;58.83;101664.78;5028783;28;1152;-80
2023/04/06 01:48:52;;;;;;;;;;;;;;;3.12;59.21;101659.88;5026050;28;1154;-80
2023/04/06 01:51:17;;;;;;;;;;;;;;;3.11;59.25;101655.66;5022413;28;1416;-80
2023/04/06 01:53:43;;;;;;;;;;;;;;;3.09;59.19;101657.41;5015559;28;1282;-80
2023/04/06 01:56:08;;;;;;;;;;;;;;;3.08;59.62;101654.94;5029493;28;1135;-80
2023/04/06 01:58:33;;;;;;;;;;;;;;;3.07;59.48;101659.22;5014943;28;1930;-79
2023/04/06 02:00:58;;;;;;;;;;;;;;;3.06;59.24;101652.44;5046526;28;1102;-80
2023/04/06 02:03:24;;;;;;;;;;;;;;;3.04;59.72;101649.09;5035042;28;1161;-80
2023/04/06 02:05:49;;;;;;;;;;;;;;;3.02;60.16;101645.72;5030026;28;1161;-80
2023/04/06 02:08:15;;;;;;;;;;;;;;;2.98;59.83;101641.59;5028897;28;1142;-80
2023/04/06 02:10:40;;;;;;;;;;;;;;;2.99;60.01;101635.63;5034944;28;1267;-78
2023/04/06 02:13:05;;;;;;;;;;;;;;;3.02;60.03;101634.66;5040244;28;989;-80
2023/04/06 02:15:30;;;;;;;;;;;;;;;3.02;60.36;101625.22;5028177;28;1269;-80
2023/04/06 02:17:57;;;;;;;;;;;;;;;3.02;60.12;101629.53;5038514;28;1951;-80
2023/04/06 02:20:22;;;;;;;;;;;;;;;3.02;59.83;101620.09;5029843;28;1134;-80
2023/04/06 02:22:47;;;;;;;;;;;;;;;3.00;60.31;101619.34;5027313;28;1160;-80
2023/04/06 02:25:12;;;;;;;;;;;;;;;2.98;60.08;101613.41;5030641;28;1537;-80
2023/04/06 02:27:38;;;;;;;;;;;;;;;2.98;60.17;101618.53;5009537;28;1213;-80
2023/04/06 02:30:03;;;;;;;;;;;;;;;2.97;60.45;101622.00;5041944;28;1184;-80
2023/04/06 02:32:28;;;;;;;;;;;;;;;2.96;60.20;101619.50;5038173;28;1137;-80
2023/04/06 02:34:54;;;;;;;;;;;;;;;2.93;60.54;101615.34;5031389;28;1202;-80
2023/04/06 02:37:19;;;;;;;;;;;;;;;2.91;59.98;101612.81;5038206;28;1980;-80
2023/04/06 02:39:45;;;;;;;;;;;;;;;2.93;61.16;101612.78;5037751;28;1269;-80
2023/04/06 02:42:10;;;;;;;;;;;;;;;2.93;60.38;101605.09;5037279;28;1042;-80
2023/04/06 02:44:35;;;;;;;;;;;;;;;2.93;60.68;101597.41;5017859;28;1081;-80
2023/04/06 02:47:01;;;;;;;;;;;;;;;2.95;60.37;101605.88;5012485;28;1307;-80
2023/04/06 02:49:26;;;;;;;;;;;;;;;2.96;60.91;101604.97;5030593;28;1125;-78
2023/04/06 02:51:51;;;;;;;;;;;;;;;2.95;60.98;101593.06;5023794;28;1284;-80
2023/04/06 02:54:16;;;;;;;;;;;;;;;2.94;60.46;101596.50;5035928;28;1029;-79
2023/04/06 02:56:41;;;;;;;;;;;;;;;2.90;60.40;101592.38;5035578;28;1898;-80
2023/04/06 02:59:07;;;;;;;;;;;;;;;2.92;60.56;101588.03;5037539;28;1129;-80
2023/04/06 03:01:32;;;;;;;;;;;;;;;2.93;61.15;101584.59;5039740;28;1129;-78
2023/04/06 03:03:57;;;;;;;;;;;;;;;2.92;60.68;101582.91;5038446;28;1246;-80
2023/04/06 03:06:22;;;;;;;;;;;;;;;2.91;60.95;101581.25;5033052;28;1472;-79
2023/04/06 03:08:48;;;;;;;;;;;;;;;2.91;61.09;101581.25;5019132;28;1256;-80
2023/04/06 03:11:13;;;;;;;;;;;;;;;2.89;61.05;101583.03;5033393;28;1895;-78
2023/04/06 03:13:38;;;;;;;;;;;;;;;2.87;60.84;101589.94;5042835;28;1110;-78
2023/04/06 03:16:04;;;;;;;;;;;;;;;2.84;61.29;101574.69;5037807;28;1181;-80
2023/04/06 03:18:30;;;;;;;;;;;;;;;2.83;61.29;101578.97;5042299;28;1936;-79
2023/04/06 03:20:55;;;;;;;;;;;;;;;2.81;61.10;101574.78;5024244;28;1161;-80
2023/04/06 03:23:21;;;;;;;;;;;;;;;2.80;61.36;101571.38;5042946;28;1134;-80
2023/04/06 03:25:46;;;;;;;;;;;;;;;2.81;61.58;101572.22;5024307;28;1113;-80
2023/04/06 03:28:11;;;;;;;;;;;;;;;2.79;62.34;101571.44;5041191;28;1096;-78
2023/04/06 03:30:36;;;;;;;;;;;;;;;2.78;62.05;101568.06;5037851;28;1280;-80
2023/04/06 03:33:01;;;;;;;;;;;;;;;2.80;61.85;101568.00;5030071;28;1197;-80
2023/04/06 03:35:27;;;;;;;;;;;;;;;2.80;62.17;101573.13;5010880;28;1230;-80
2023/04/06 03:37:52;;;;;;;;;;;;;;;2.80;62.35;101570.56;5044004;28;1894;-80
2023/04/06 03:40:17;;;;;;;;;;;;;;;2.78;62.21;101564.66;5035944;28;1139;-80
2023/04/06 03:42:42;;;;;;;;;;;;;;;2.78;62.82;101564.66;5029595;28;962;-79
2023/04/06 03:45:08;;;;;;;;;;;;;;;2.79;62.55;101566.31;5033696;28;1301;-80
2023/04/06 03:47:33;;;;;;;;;;;;;;;2.79;62.65;101562.03;5041341;28;1289;-79
2023/04/06 03:49:58;;;;;;;;;;;;;;;2.76;62.48;101562.16;5013077;28;1398;-79
2023/04/06 03:52:24;;;;;;;;;;;;;;;2.76;62.93;101549.34;5036833;28;1086;-80
2023/04/06 03:54:49;;;;;;;;;;;;;;;2.77;63.21;101550.19;5040316;28;1155;-79
2023/04/06 03:57:14;;;;;;;;;;;;;;;2.79;62.71;101545.84;5032891;28;2046;-78
2023/04/06 03:59:40;;;;;;;;;;;;;;;2.81;63.22;101554.28;5031895;28;1105;-80
2023/04/06 04:02:05;;;;;;;;;;;;;;;2.81;63.71;101554.28;5035774;28;1108;-79
2023/04/06 04:04:30;;;;;;;;;;;;;;;2.81;63.50;101554.28;5031472;28;1165;-81
2023/04/06 04:06:55;;;;;;;;;;;;;;;2.81;63.11;101560.28;5023405;28;998;-80
2023/04/06 04:09:20;;;;;;;;;;;;;;;2.81;63.81;101549.16;5006625;28;1324;-81
2023/04/06 04:11:46;;;;;;;;;;;;;;;2.83;63.51;101555.09;5039391;28;1180;-80
2023/04/06 04:14:11;;;;;;;;;;;;;;;2.84;63.32;101559.31;5029318;28;1137;-81
2023/04/06 04:16:36;;;;;;;;;;;;;;;2.83;63.44;101557.66;5033704;28;1902;-81
2023/04/06 04:19:01;;;;;;;;;;;;;;;2.84;63.88;101554.19;5019072;28;1088;-81
2023/04/06 04:21:29;;;;;;;;;;;;;;;2.83;63.38;101558.47;5035860;28;1068;-81
2023/04/06 04:23:55;;;;;;;;;;;;;;;2.84;63.21;101551.63;5034534;28;1170;-82
2023/04/06 04:26:20;;;;;;;;;;;;;;;2.83;63.56;101561.03;5038882;28;1164;-81
2023/04/06 04:28:45;;;;;;;;;;;;;;;2.84;63.32;101561.88;5038512;28;1101;-81
2023/04/06 04:31:11;;;;;;;;;;;;;;;2.84;63.60;101559.31;5015655;28;1271;-81
2023/04/06 04:33:36;;;;;;;;;;;;;;;2.81;63.70;101555.16;5029542;28;1095;-81
2023/04/06 04:36:01;;;;;;;;;;;;;;;2.79;64.69;101558.66;5018773;28;1215;-81
2023/04/06 04:38:27;;;;;;;;;;;;;;;2.74;64.67;101547.72;5038283;28;1965;-80
2023/04/06 04:40:52;;;;;;;;;;;;;;;2.80;64.02;101550.06;5018715;28;1149;-81
2023/04/06 04:43:17;;;;;;;;;;;;;;;2.79;64.70;101546.66;5036806;28;1439;-82
2023/04/06 04:45:43;;;;;;;;;;;;;;;2.80;64.89;101552.63;5022262;28;1168;-82
2023/04/06 04:48:08;;;;;;;;;;;;;;;2.81;64.21;101549.16;5033695;28;1067;-82
2023/04/06 04:50:34;;;;;;;;;;;;;;;2.83;64.43;101548.22;5040926;28;1144;-81
2023/04/06 04:52:59;;;;;;;;;;;;;;;2.84;64.77;101549.06;5044997;28;1012;-80
2023/04/06 04:55:25;;;;;;;;;;;;;;;2.85;64.59;101553.28;5036299;28;1268;-81
2023/04/06 04:57:50;;;;;;;;;;;;;;;2.85;64.55;101545.59;5033985;28;1910;-79
2023/04/06 05:00:15;;;;;;;;;;;;;;;2.85;64.49;101545.59;5033001;28;1688;-81
2023/04/06 05:02:40;;;;;;;;;;;;;;;2.86;64.91;101548.09;5038944;28;1316;-78
2023/04/06 05:05:06;;;;;;;;;;;;;;;2.84;64.97;101546.50;5036135;28;1110;-79
2023/04/06 05:07:32;;;;;;;;;;;;;;;2.83;65.00;101548.22;5035801;28;1240;-80
2023/04/06 05:09:57;;;;;;;;;;;;;;;2.83;64.84;101542.28;5038066;28;1192;-80
2023/04/06 05:12:23;;;;;;;;;;;;;;;2.84;65.22;101549.06;5037316;28;1073;-80
2023/04/06 05:14:48;;;;;;;;;;;;;;;2.85;65.43;101545.59;5018440;28;1252;-81
2023/04/06 05:17:14;;;;;;;;;;;;;;;2.85;65.35;101545.59;5018199;28;2242;-80
2023/04/06 05:19:39;;;;;;;;;;;;;;;2.82;65.37;101541.44;5033414;28;1049;-80
2023/04/06 05:22:04;;;;;;;;;;;;;;;2.80;65.65;101539.81;5016768;28;1165;-80
2023/04/06 05:24:30;;;;;;;;;;;;;;;2.80;65.84;101542.38;5017145;28;1207;-80
2023/04/06 05:26:55;;;;;;;;;;;;;;;2.79;65.75;101535.59;5032471;28;1098;-80
2023/04/06 05:29:21;;;;;;;;;;;;;;;2.78;66.17;101539.03;5022127;28;1322;-81
2023/04/06 05:31:46;;;;;;;;;;;;;;;2.77;66.51;101533.09;5019783;28;1202;-80
2023/04/06 05:34:12;;;;;;;;;;;;;;;2.77;65.61;101533.09;5015749;28;1226;-80
2023/04/06 05:36:37;;;;;;;;;;;;;;;2.77;65.96;101537.38;5039615;28;1906;-79
2023/04/06 05:39:02;;;;;;;;;;;;;;;2.79;66.09;101530.47;5026835;28;1172;-79
2023/04/06 05:41:28;;;;;;;;;;;;;;;2.80;66.93;101534.69;5035862;28;1115;-80
2023/04/06 05:43:53;;;;;;;;;;;;;;;2.80;67.30;101532.13;5027095;28;987;-80
2023/04/06 05:46:18;;;;;;;;;;;;;;;2.79;67.38;101523.59;5017713;28;1165;-81
2023/04/06 05:48:43;;;;;;;;;;;;;;;2.82;67.78;101532.94;5026891;28;1261;-80
2023/04/06 05:51:09;;;;;;;;;;;;;;;2.82;67.23;101526.06;5006851;28;1207;-80
2023/04/06 05:53:34;;;;;;;;;;;;;;;2.81;68.08;101518.41;5016343;28;1185;-80
2023/04/06 05:56:02;;;;;;;;;;;;;;;2.83;69.23;101527.72;5016618;28;1193;-80
2023/04/06 05:58:28;;;;;;;;;;;;;;;2.83;68.29;101535.41;5037530;28;1957;-80
2023/04/06 06:00:57;;;;;;;;;;;;;;;2.84;68.99;101526.00;5035099;28;1140;-79
2023/04/06 06:03:22;;;;;;;;;;;;;;;2.82;68.67;101533.75;5008633;28;1204;-80
2023/04/06 06:05:48;;;;;;;;;;;;;;;2.84;69.14;101528.56;5013534;28;1215;-80
2023/04/06 06:08:13;;;;;;;;;;;;;;;2.86;69.78;101526.78;5033679;28;1135;-79
2023/04/06 06:10:39;;;;;;;;;;;;;;;2.90;69.48;101523.22;5042820;28;1093;-80
2023/04/06 06:13:04;;;;;;;;;;;;;;;2.93;69.50;101528.22;5018991;28;1598;-81
2023/04/06 06:15:30;;;;;;;;;;;;;;;2.96;69.55;101527.25;5022660;28;1279;-80
2023/04/06 06:17:55;;;;;;;;;;;;;;;2.98;69.63;101526.28;5033287;28;1949;-80
2023/04/06 06:20:20;;;;;;;;;;;;;;;3.00;69.51;101527.09;5035136;28;1033;-81
2023/04/06 06:22:45;;;;;;;;;;;;;;;3.03;69.77;101524.41;5020837;28;1090;-79
2023/04/06 06:25:10;;;;;;;;;;;;;;;3.06;69.76;101519.16;5013881;28;1223;-81
2023/04/06 06:27:36;;;;;;;;;;;;;;;3.09;70.04;101520.75;5033819;28;1126;-80
2023/04/06 06:30:02;;;;;;;;;;;;;;;3.11;69.56;101517.25;5031833;28;1125;-80
2023/04/06 06:32:27;;;;;;;;;;;;;;;3.14;69.83;101522.25;5024502;28;1170;-81
2023/04/06 06:34:52;;;;;;;;;;;;;;;3.17;69.73;101524.69;5036083;28;1089;-80
2023/04/06 06:37:18;;;;;;;;;;;;;;;3.20;69.80;101522.00;5012316;28;1886;-80
2023/04/06 06:39:43;;;;;;;;;;;;;;;3.23;71.26;101530.47;5030670;28;1290;-81
2023/04/06 06:42:08;;;;;;;;;;;;;;;3.28;71.15;101533.69;5034155;28;1054;-80
2023/04/06 06:44:33;;;;;;;;;;;;;;;3.32;71.15;101527.53;5021428;28;1089;-81
2023/04/06 06:46:58;;;;;;;;;;;;;;;3.35;70.59;101535.13;5011668;28;1185;-81
2023/04/06 06:49:24;;;;;;;;;;;;;;;3.40;70.78;101522.94;5034189;28;1114;-80
2023/04/06 06:51:49;;;;;;;;;;;;;;;3.46;71.04;101528.66;5034043;28;1076;-81
2023/04/06 06:54:15;;;;;;;;;;;;;;;3.53;70.32;101529.25;5009982;28;1324;-80
2023/04/06 06:56:40;;;;;;;;;;;;;;;3.59;70.93;101523.84;5013039;28;1967;-81
2023/04/06 06:59:08;;;;;;;;;;;;;;;3.67;70.91;101526.97;5021194;28;1283;-80
2023/04/06 07:01:34;;;;;;;;;;;;;;;3.73;70.79;101521.56;5027576;28;993;-80
2023/04/06 07:03:59;;;;;;;;;;;;;;;3.80;70.69;101521.31;5038871;28;1175;-80
2023/04/06 07:06:24;;;;;;;;;;;;;;;3.87;70.47;101527.84;5031541;28;1230;-81
2023/04/06 07:08:50;;;;;;;;;;;;;;;3.93;70.83;101512.19;5037365;28;1181;-81
2023/04/06 07:11:15;;;;;;;;;;;;;;;3.99;70.27;101511.91;5034719;28;1125;-81
2023/04/06 07:13:41;;;;;;;;;;;;;;;4.05;70.61;101514.22;5027254;28;1018;-81
2023/04/06 07:16:07;;;;;;;;;;;;;;;4.13;70.68;101514.72;5020306;28;1239;-80
2023/04/06 07:18:32;;;;;;;;;;;;;;;4.18;70.35;101507.63;5041903;28;2256;-81
2023/04/06 07:20:57;;;;;;;;;;;;;;;4.25;70.49;101508.22;5009727;28;1209;-81
2023/04/06 07:23:22;;;;;;;;;;;;;;;4.31;70.28;101509.69;5020567;28;1251;-80
2023/04/06 07:25:50;;;;;;;;;;;;;;;4.36;69.85;101500.88;5019439;28;1277;-81
2023/04/06 07:28:16;;;;;;;;;;;;;;;4.42;69.59;101500.59;5019837;28;1160;-81
2023/04/06 07:30:41;;;;;;;;;;;;;;;4.47;69.86;101502.94;5028399;28;996;-81
2023/04/06 07:33:07;;;;;;;;;;;;;;;4.53;69.72;101507.81;5042124;28;1093;-81
2023/04/06 07:35:32;;;;;;;;;;;;;;;4.59;69.88;101511.81;5010872;28;1175;-80
2023/04/06 07:37:57;;;;;;;;;;;;;;;4.62;69.39;101507.38;5031481;28;1898;-81
2023/04/06 07:40:23;;;;;;;;;;;;;;;4.67;69.58;101510.59;5014995;28;1216;-80
2023/04/06 07:42:48;;;;;;;;;;;;;;;4.72;69.13;101502.66;5035464;28;1070;-81
2023/04/06 07:45:15;;;;;;;;;;;;;;;4.76;68.95;101502.47;5033448;28;998;-80
2023/04/06 07:47:40;;;;;;;;;;;;;;;4.82;69.07;101497.91;5030677;28;933;-81
2023/04/06 07:50:06;;;;;;;;;;;;;;;4.88;68.74;101505.38;5029944;28;2021;-81
2023/04/06 07:52:34;;;;;;;;;;;;;;;4.92;68.06;101494.00;5038468;28;1180;-80
2023/04/06 07:54:59;;;;;;;;;;;;;;;4.97;68.50;101497.19;5037554;28;1334;-81
2023/04/06 07:57:25;;;;;;;;;;;;;;;5.01;68.48;101499.56;5019982;28;1918;-81
2023/04/06 07:59:50;;;;;;;;;;;;;;;5.06;68.15;101501.91;5027636;28;1219;-81
2023/04/06 08:02:15;;;;;;;;;;;;;;;5.10;68.10;101502.59;5018882;28;1215;-81
2023/04/06 08:04:41;;;;;;;;;;;;;;;5.14;67.82;101509.25;5015169;28;1212;-81
2023/04/06 08:07:06;;;;;;;;;;;;;;;5.19;67.11;101510.72;5031765;28;1102;-79
2023/04/06 08:09:31;;;;;;;;;;;;;;;5.22;67.27;101502.84;5042198;28;1029;-81
2023/04/06 08:11:57;;;;;;;;;;;;;;;5.27;67.80;101500.88;5017894;28;1417;-80
2023/04/06 08:14:22;;;;;;;;;;;;;;;5.31;67.76;101502.38;5024149;28;1199;-80
2023/04/06 08:16:47;;;;;;;;;;;;;;;5.37;67.86;101500.44;5035538;28;1894;-81
2023/04/06 08:19:12;;;;;;;;;;;;;;;5.44;67.38;101501.78;5037983;28;1279;-79
2023/04/06 08:21:39;;;;;;;;;;;;;;;5.48;67.47;101499.00;5038251;28;1447;-81
2023/04/06 08:24:05;;;;;;;;;;;;;;;5.54;67.11;101497.84;5036136;28;1166;-81
2023/04/06 08:26:31;;;;;;;;;;;;;;;5.57;67.46;101500.28;5038581;28;1204;-81
2023/04/06 08:28:56;;;;;;;;;;;;;;;5.65;66.80;101505.03;5034437;28;1143;-82
2023/04/06 08:31:21;;;;;;;;;;;;;;;5.70;66.67;101501.34;5033367;28;1101;-81
2023/04/06 08:33:46;;;;;;;;;;;;;;;5.76;67.16;101508.75;5034804;28;1092;-80
2023/04/06 08:36:13;;;;;;;;;;;;;;;5.81;66.79;101506.78;5031984;28;1177;-81
2023/04/06 08:38:39;;;;;;;;;;;;;;;5.86;67.23;101509.13;5020785;28;1951;-81
2023/04/06 08:41:08;;;;;;;;;;;;;;;5.92;66.28;101510.59;5039096;28;1286;-81
2023/04/06 08:43:36;;;;;;;;;;;;;;;5.98;66.54;101511.09;5034962;28;1215;-80
2023/04/06 08:46:02;;;;;;;;;;;;;;;6.03;66.74;101500.56;5036276;28;1148;-81
2023/04/06 08:48:28;;;;;;;;;;;;;;;6.07;66.59;101512.34;5036976;28;1086;-80
2023/04/06 08:50:54;;;;;;;;;;;;;;;6.12;65.70;101510.38;5028937;28;1090;-81
2023/04/06 08:53:20;;;;;;;;;;;;;;;6.17;65.60;101507.56;5033806;28;1434;-81
2023/04/06 08:55:46;;;;;;;;;;;;;;;6.21;65.96;101504.75;5039263;28;1191;-81
2023/04/06 08:58:11;;;;;;;;;;;;;;;6.25;65.76;101505.41;5017365;28;1977;-81
2023/04/06 09:00:38;;;;;;;;;;;;;;;6.31;66.67;101507.69;5032926;28;1140;-81
2023/04/06 09:03:03;;;;;;;;;;;;;;;6.37;65.87;101500.47;5040841;28;1184;-81
2023/04/06 09:05:28;;;;;;;;;;;;;;;6.44;66.05;101510.44;5016932;28;1334;-81
2023/04/06 09:07:54;;;;;;;;;;;;;;;6.51;65.66;101506.63;5032834;28;1019;-82
2023/04/06 09:10:20;;;;;;;;;;;;;;;6.56;65.63;101496.91;5037842;28;1197;-81
2023/04/06 09:12:45;;;;;;;;;;;;;;;6.62;65.92;101507.69;5033775;28;1162;-82
2023/04/06 09:15:18;;;;;;;;;;;;;;;6.69;65.56;101510.78;5037530;28;1125;-81
2023/04/06 09:17:43;;;;;;;;;;;;;;;6.75;65.01;101519.91;5037891;28;1965;-79
2023/04/06 09:20:09;;;;;;;;;;;;;;;6.78;64.62;101499.97;5032700;28;1176;-81
2023/04/06 09:22:38;;;;;;;;;;;;;;;6.79;64.59;101506.78;5033874;28;1098;-81
2023/04/06 09:25:03;;;;;;;;;;;;;;;6.84;64.23;101502.22;5033962;28;1241;-81
2023/04/06 09:27:32;;;;;;;;;;;;;;;6.87;63.83;101502.03;5034442;28;1167;-80
2023/04/06 09:30:05;;;;;;;;;;;;;;;6.92;64.24;101507.75;5033469;28;1151;-80
2023/04/06 09:32:31;;;;;;;;;;;;;;;6.99;64.25;101507.41;5032907;28;1070;-80
2023/04/06 09:35:06;;;;;;;;;;;;;;;7.03;65.00;101508.91;5038777;28;1073;-78
2023/04/06 09:37:31;;;;;;;;;;;;;;;7.11;64.31;101506.72;5028615;28;1902;-81
2023/04/06 09:40:10;;;;;;;;;;;;;;;7.16;64.54;101504.72;5018243;28;1310;-81
2023/04/06 09:42:35;;;;;;;;;;;;;;;7.22;64.67;101504.38;5030883;28;1165;-80
2023/04/06 09:45:01;;;;;;;;;;;;;;;7.27;64.40;101507.53;5034326;28;1431;-80
2023/04/06 09:47:26;;;;;;;;;;;;;;;7.30;64.53;101489.31;5033461;28;1069;-81
2023/04/06 09:49:56;;;;;;;;;;;;;;;7.39;64.33;101496.50;5031829;28;1118;-81
2023/04/06 09:52:22;;;;;;;;;;;;;;;7.44;64.39;101502.22;5026404;28;1176;-79
2023/04/06 09:54:49;;;;;;;;;;;;;;;7.49;65.15;101496.00;5017206;28;2033;-80
2023/04/06 09:57:41;;;;;;;;;;;;;;;7.54;65.10;101506.88;5009745;28;1895;-80
2023/04/06 10:00:11;;;;;;;;;;;;;;;7.60;65.43;101509.09;5011937;28;1227;-80
2023/04/06 10:02:39;;;;;;;;;;;;;;;7.65;65.18;101512.25;5039215;28;1033;-80
2023/04/06 10:05:20;;;;;;;;;;;;;;;7.71;65.45;101506.72;5012917;28;1170;-81
2023/04/06 10:07:46;;;;;;;;;;;;;;;7.77;64.84;101506.38;5026285;28;1385;-80
2023/04/06 10:10:14;;;;;;;;;;;;;;;7.85;64.84;101511.91;5009611;28;1205;-80
2023/04/06 10:12:40;;;;;;;;;;;;;;;7.91;64.95;101503.81;5035770;28;1334;-81
2023/04/06 10:15:05;;;;;;;;;;;;;;;7.98;65.41;101505.09;5023613;28;1129;-79
2023/04/06 10:17:30;;;;;;;;;;;;;;;8.10;65.34;101508.69;5030222;28;1910;-80
2023/04/06 10:20:02;;;;;;;;;;;;;;;8.17;66.58;101504.00;5021356;28;1129;-81
2023/04/06 10:22:38;;;;;;;;;;;;;;;8.24;66.28;101510.44;5021248;28;1012;-80
2023/04/06 10:25:04;;;;;;;;;;;;;;;8.30;65.71;101510.06;5034171;28;1164;-80
2023/04/06 10:27:29;;;;;;;;;;;;;;;8.37;66.64;101506.22;5020630;28;1456;-80
2023/04/06 10:30:00;;;;;;;;;;;;;;;8.38;67.48;101505.31;5010261;28;1240;-80
2023/04/06 10:32:32;;;;;;;;;;;;;;;8.35;68.41;101508.03;5029452;28;966;-80
2023/04/06 10:35:04;;;;;;;;;;;;;;;8.34;68.44;101511.53;5017931;28;1339;-81
2023/04/06 10:37:46;;;;;;;;;;;;;;;8.34;69.74;101514.13;5011421;28;1963;-80
2023/04/06 10:40:20;;;;;;;;;;;;;;;8.36;70.40;101509.72;5024177;28;1213;-80
2023/04/06 10:42:46;;;;;;;;;;;;;;;8.27;70.81;101515.44;5026658;28;1022;-81
2023/04/06 10:45:21;;;;;;;;;;;;;;;8.25;70.61;101512.09;5027299;28;1374;-80
2023/04/06 10:47:46;;;;;;;;;;;;;;;8.18;71.79;101510.81;5029463;28;1029;-81
2023/04/06 10:50:14;;;;;;;;;;;;;;;8.16;72.98;101512.66;5035114;28;1354;-80
2023/04/06 10:52:39;;;;;;;;;;;;;;;8.14;73.52;101509.31;5020504;28;1571;-81
2023/04/06 10:55:05;;;;;;;;;;;;;;;8.11;73.13;101519.88;5032065;28;1181;-81
2023/04/06 10:57:32;;;;;;;;;;;;;;;8.05;73.96;101515.06;5013625;28;1965;-80
2023/04/06 10:59:57;;;;;;;;;;;;;;;7.99;74.43;101511.09;5035287;28;1213;-81
2023/04/06 11:02:23;;;;;;;;;;;;;;;7.93;74.84;101507.13;5042424;28;1034;-82
2023/04/06 11:04:56;;;;;;;;;;;;;;;7.92;78.68;101505.47;5022844;28;1275;-81
2023/04/06 11:07:29;;;;;;;;;;;;;;;7.94;77.76;101502.78;5012041;28;1187;-81
2023/04/06 11:09:54;;;;;;;;;;;;;;;7.95;76.90;101502.69;5030340;28;1146;-82
2023/04/06 11:12:26;;;;;;;;;;;;;;;7.92;76.72;101505.47;5043883;28;1114;-81
2023/04/06 11:14:53;;;;;;;;;;;;;;;7.94;76.39;101508.78;5015879;28;1350;-82
2023/04/06 11:17:25;;;;;;;;;;;;;;;7.91;77.17;101498.66;5028737;28;1890;-80
2023/04/06 11:19:50;;;;;;;;;;;;;;;7.91;76.41;101498.66;5023606;28;1227;-82
2023/04/06 11:22:16;;;;;;;;;;;;;;;7.82;77.39;101504.34;5034968;28;1335;-82
2023/04/06 11:24:41;;;;;;;;;;;;;;;7.82;77.38;101499.19;5017587;28;1287;-81
2023/04/06 11:27:07;;;;;;;;;;;;;;;7.81;78.72;101487.19;5019373;28;1346;-82
2023/04/06 11:29:33;;;;;;;;;;;;;;;7.75;79.58;101494.47;5037618;28;1103;-82
2023/04/06 11:31:58;;;;;;;;;;;;;;;7.72;77.77;101495.47;5034060;28;1140;-82
2023/04/06 11:34:24;;;;;;;;;;;;;;;7.70;80.18;101489.59;5028262;28;1308;-82
2023/04/06 11:37:00;;;;;;;;;;;;;;;7.65;79.49;101494.19;5041050;28;1939;-79
2023/04/06 11:39:27;;;;;;;;;;;;;;;7.63;80.01;101477.97;5042882;28;1541;-81
2023/04/06 11:41:54;;;;;;;;;;;;;;;7.62;80.91;101487.44;5038041;28;1080;-81
2023/04/06 11:44:32;;;;;;;;;;;;;;;7.60;81.82;101475.53;5041093;28;1085;-81
2023/04/06 11:46:57;;;;;;;;;;;;;;;7.55;80.84;101469.81;5011118;28;1203;-81
2023/04/06 11:49:26;;;;;;;;;;;;;;;7.51;80.19;101468.31;5039747;28;1134;-81
2023/04/06 11:51:51;;;;;;;;;;;;;;;7.48;80.98;101471.09;5041555;28;1082;-82
2023/04/06 11:54:17;;;;;;;;;;;;;;;7.46;82.25;101466.03;5019525;28;1271;-82
2023/04/06 11:56:46;;;;;;;;;;;;;;;7.48;81.85;101463.34;5041526;28;1137;-82
2023/04/06 11:59:11;;;;;;;;;;;;;;;7.44;81.43;101463.53;5033653;28;2069;-81
2023/04/06 12:01:44;;;;;;;;;;;;;;;7.44;81.37;101462.69;5020702;28;1310;-81
2023/04/06 12:04:09;;;;;;;;;;;;;;;7.41;81.31;101466.31;5010544;28;1176;-83
2023/04/06 12:06:35;;;;;;;;;;;;;;;7.39;81.92;101465.53;5029230;28;1190;-82
2023/04/06 12:09:00;;;;;;;;;;;;;;;7.37;82.61;101457.06;5039356;28;1473;-81
2023/04/06 12:11:25;;;;;;;;;;;;;;;7.33;81.58;101462.47;5037708;28;1100;-82
2023/04/06 12:13:50;;;;;;;;;;;;;;;7.33;83.34;101458.16;5044433;28;996;-82
2023/04/06 12:16:16;;;;;;;;;;;;;;;7.35;83.09;101447.75;5009138;28;1196;-83
2023/04/06 12:18:41;;;;;;;;;;;;;;;7.34;82.85;101452.09;5025409;28;1918;-82
2023/04/06 12:21:06;;;;;;;;;;;;;;;7.36;85.02;101450.25;5023857;28;1449;-82
2023/04/06 12:23:32;;;;;;;;;;;;;;;7.38;83.56;101448.41;5041417;28;1151;-83
2023/04/06 12:25:57;;;;;;;;;;;;;;;7.42;83.29;101444.72;5031735;28;1118;-83
2023/04/06 12:28:26;;;;;;;;;;;;;;;7.42;84.87;101439.56;5039885;28;998;-81
2023/04/06 12:30:51;;;;;;;;;;;;;;;7.40;84.39;101446.56;5018206;28;1314;-82
2023/04/06 12:33:17;;;;;;;;;;;;;;;7.41;84.26;101453.41;5011705;28;1157;-83
2023/04/06 12:35:42;;;;;;;;;;;;;;;7.41;83.93;101445.66;5031618;28;1185;-83
2023/04/06 12:38:07;;;;;;;;;;;;;;;7.44;84.53;101440.28;5032224;28;1898;-83
2023/04/06 12:40:36;;;;;;;;;;;;;;;7.45;86.11;101441.97;5019700;28;1168;-82
2023/04/06 12:43:01;;;;;;;;;;;;;;;7.49;85.33;101439.19;5022323;28;1272;-83
2023/04/06 12:45:26;;;;;;;;;;;;;;;7.49;84.49;101428.88;5030496;28;1132;-82
2023/04/06 12:47:51;;;;;;;;;;;;;;;7.48;85.32;101422.88;5032089;28;1458;-81
2023/04/06 12:50:17;;;;;;;;;;;;;;;7.49;86.48;101434.88;5031692;28;1217;-83
2023/04/06 12:52:42;;;;;;;;;;;;;;;7.50;84.95;101430.53;5036809;28;1118;-83